sensor_id;sensor_type;location;lat;lon;timestamp;temperature;humidity
13328;DHT22;6733;51.044;3.746;2022-07-04T00:01:18;16.00;99.90
13328;DHT22;6733;51.044;3.746;2022-07-04T00:03:44;16.00;99.90
13328;DHT22;6733;51.044;3.746;2022-07-04T00:06:10;16.00;99.90
13328;DHT22;6733;51.044;3.746;2022-07-04T00:08:37;16.00;99.90
13328;DHT22;6733;51.044;3.746;2022-07-04T00:11:03;16.00;99.90
13328;DHT22;6733;51.044;3.746;2022-07-04T00:13:29;16.00;99.90
13328;DHT22;6733;51.044;3.746;2022-07-04T00:15:55;15.90;99.90
13328;DHT22;6733;51.044;3.746;2022-07-04T00:18:21;15.90;99.90
13328;DHT22;6733;51.044;3.746;2022-07-04T00:20:48;15.80;99.90
13328;DHT22;6733;51.044;3.746;2022-07-04T00:23:14;15.80;99.90
13328;DHT22;6733;51.044;3.746;2022-07-04T00:25:40;15.80;99.90
13328;DHT22;6733;51.044;3.746;2022-07-04T00:28:06;15.80;99.90
13328;DHT22;6733;51.044;3.746;2022-07-04T00:30:32;15.70;99.90
13328;DHT22;6733;51.044;3.746;2022-07-04T00:32:58;15.70;99.90
13328;DHT22;6733;51.044;3.746;2022-07-04T00:35:25;15.60;99.90
13328;DHT22;6733;51.044;3.746;2022-07-04T00:37:51;15.60;99.90
13328;DHT22;6733;51.044;3.746;2022-07-04T00:40:17;15.50;99.90
13328;DHT22;6733;51.044;3.746;2022-07-04T00:42:43;15.50;99.90
13328;DHT22;6733;51.044;3.746;2022-07-04T00:45:09;15.40;99.90
13328;DHT22;6733;51.044;3.746;2022-07-04T00:47:36;15.40;99.90
13328;DHT22;6733;51.044;3.746;2022-07-04T00:50:02;15.40;99.90
13328;DHT22;6733;51.044;3.746;2022-07-04T00:52:28;15.40;99.90
13328;DHT22;6733;51.044;3.746;2022-07-04T00:54:54;15.40;99.90
13328;DHT22;6733;51.044;3.746;2022-07-04T00:57:22;15.30;99.90
13328;DHT22;6733;51.044;3.746;2022-07-04T00:59:48;15.20;99.90
13328;DHT22;6733;51.044;3.746;2022-07-04T01:02:14;15.20;99.90
13328;DHT22;6733;51.044;3.746;2022-07-04T01:04:40;15.10;99.90
13328;DHT22;6733;51.044;3.746;2022-07-04T01:07:06;15.10;99.90
13328;DHT22;6733;51.044;3.746;2022-07-04T01:09:33;15.00;99.90
13328;DHT22;6733;51.044;3.746;2022-07-04T01:11:59;15.00;99.90
13328;DHT22;6733;51.044;3.746;2022-07-04T01:14:26;15.00;99.90
13328;DHT22;6733;51.044;3.746;2022-07-04T01:16:52;15.00;99.90
13328;DHT22;6733;51.044;3.746;2022-07-04T01:19:18;15.00;99.90
13328;DHT22;6733;51.044;3.746;2022-07-04T01:21:44;15.00;99.90
13328;DHT22;6733;51.044;3.746;2022-07-04T01:24:11;14.90;99.90
13328;DHT22;6733;51.044;3.746;2022-07-04T01:26:38;14.90;99.90
13328;DHT22;6733;51.044;3.746;2022-07-04T01:29:04;14.80;99.90
13328;DHT22;6733;51.044;3.746;2022-07-04T01:31:30;14.80;99.90
13328;DHT22;6733;51.044;3.746;2022-07-04T01:33:56;14.80;99.90
13328;DHT22;6733;51.044;3.746;2022-07-04T01:36:23;14.80;99.90
13328;DHT22;6733;51.044;3.746;2022-07-04T01:38:49;14.80;99.90
13328;DHT22;6733;51.044;3.746;2022-07-04T01:41:15;14.70;99.90
13328;DHT22;6733;51.044;3.746;2022-07-04T01:43:41;14.70;99.90
13328;DHT22;6733;51.044;3.746;2022-07-04T01:46:07;14.70;99.90
13328;DHT22;6733;51.044;3.746;2022-07-04T01:48:33;14.60;99.90
13328;DHT22;6733;51.044;3.746;2022-07-04T01:51:00;14.60;99.90
13328;DHT22;6733;51.044;3.746;2022-07-04T01:53:26;14.50;99.90
13328;DHT22;6733;51.044;3.746;2022-07-04T01:55:52;14.50;99.90
13328;DHT22;6733;51.044;3.746;2022-07-04T01:58:18;14.50;99.90
13328;DHT22;6733;51.044;3.746;2022-07-04T02:00:44;14.40;99.90
13328;DHT22;6733;51.044;3.746;2022-07-04T02:03:29;14.40;99.90
13328;DHT22;6733;51.044;3.746;2022-07-04T02:05:55;14.40;99.90
13328;DHT22;6733;51.044;3.746;2022-07-04T02:08:21;14.30;99.90
13328;DHT22;6733;51.044;3.746;2022-07-04T02:10:47;14.30;99.90
13328;DHT22;6733;51.044;3.746;2022-07-04T02:13:13;14.30;99.90
13328;DHT22;6733;51.044;3.746;2022-07-04T02:15:41;14.30;99.90
13328;DHT22;6733;51.044;3.746;2022-07-04T02:18:09;14.30;99.90
13328;DHT22;6733;51.044;3.746;2022-07-04T02:20:36;14.30;99.90
13328;DHT22;6733;51.044;3.746;2022-07-04T02:23:04;14.30;99.90
13328;DHT22;6733;51.044;3.746;2022-07-04T02:25:30;14.30;99.90
13328;DHT22;6733;51.044;3.746;2022-07-04T02:27:56;14.30;99.90
13328;DHT22;6733;51.044;3.746;2022-07-04T02:30:23;14.20;99.90
13328;DHT22;6733;51.044;3.746;2022-07-04T02:32:50;14.20;99.90
13328;DHT22;6733;51.044;3.746;2022-07-04T02:35:16;14.30;99.90
13328;DHT22;6733;51.044;3.746;2022-07-04T02:37:49;14.30;99.90
13328;DHT22;6733;51.044;3.746;2022-07-04T02:40:15;14.30;99.90
13328;DHT22;6733;51.044;3.746;2022-07-04T02:42:41;14.20;99.90
13328;DHT22;6733;51.044;3.746;2022-07-04T02:45:08;14.30;99.90
13328;DHT22;6733;51.044;3.746;2022-07-04T02:47:34;14.30;99.90
13328;DHT22;6733;51.044;3.746;2022-07-04T02:50:01;14.30;99.90
13328;DHT22;6733;51.044;3.746;2022-07-04T02:52:28;14.30;99.90
13328;DHT22;6733;51.044;3.746;2022-07-04T02:54:55;14.20;99.90
13328;DHT22;6733;51.044;3.746;2022-07-04T02:57:21;14.20;99.90
13328;DHT22;6733;51.044;3.746;2022-07-04T02:59:47;14.10;99.90
13328;DHT22;6733;51.044;3.746;2022-07-04T03:02:13;14.10;99.90
13328;DHT22;6733;51.044;3.746;2022-07-04T03:04:39;14.10;99.90
13328;DHT22;6733;51.044;3.746;2022-07-04T03:07:07;14.00;99.90
13328;DHT22;6733;51.044;3.746;2022-07-04T03:09:34;14.00;99.90
13328;DHT22;6733;51.044;3.746;2022-07-04T03:12:00;14.00;99.90
13328;DHT22;6733;51.044;3.746;2022-07-04T03:14:26;14.00;99.90
13328;DHT22;6733;51.044;3.746;2022-07-04T03:16:52;14.00;99.90
13328;DHT22;6733;51.044;3.746;2022-07-04T03:19:18;14.00;99.90
13328;DHT22;6733;51.044;3.746;2022-07-04T03:21:45;14.10;99.90
13328;DHT22;6733;51.044;3.746;2022-07-04T03:24:11;14.10;99.90
13328;DHT22;6733;51.044;3.746;2022-07-04T03:26:37;14.10;99.90
13328;DHT22;6733;51.044;3.746;2022-07-04T03:29:03;14.10;99.90
13328;DHT22;6733;51.044;3.746;2022-07-04T03:31:29;14.10;99.90
13328;DHT22;6733;51.044;3.746;2022-07-04T03:33:56;14.20;99.90
13328;DHT22;6733;51.044;3.746;2022-07-04T03:36:22;14.20;99.90
13328;DHT22;6733;51.044;3.746;2022-07-04T03:38:48;14.20;99.90
13328;DHT22;6733;51.044;3.746;2022-07-04T03:41:15;14.20;99.90
13328;DHT22;6733;51.044;3.746;2022-07-04T03:43:41;14.30;99.90
13328;DHT22;6733;51.044;3.746;2022-07-04T03:46:07;14.30;99.90
13328;DHT22;6733;51.044;3.746;2022-07-04T03:48:33;14.30;99.90
13328;DHT22;6733;51.044;3.746;2022-07-04T03:51:00;14.20;99.90
13328;DHT22;6733;51.044;3.746;2022-07-04T03:53:26;14.20;99.90
13328;DHT22;6733;51.044;3.746;2022-07-04T03:55:52;14.20;99.90
13328;DHT22;6733;51.044;3.746;2022-07-04T03:58:18;14.20;99.90
13328;DHT22;6733;51.044;3.746;2022-07-04T04:00:44;14.20;99.90
13328;DHT22;6733;51.044;3.746;2022-07-04T04:03:11;14.20;99.90
13328;DHT22;6733;51.044;3.746;2022-07-04T04:05:56;14.20;99.90
13328;DHT22;6733;51.044;3.746;2022-07-04T04:08:22;14.10;99.90
13328;DHT22;6733;51.044;3.746;2022-07-04T04:10:49;14.10;99.90
13328;DHT22;6733;51.044;3.746;2022-07-04T04:13:17;14.10;99.90
13328;DHT22;6733;51.044;3.746;2022-07-04T04:15:43;14.10;99.90
13328;DHT22;6733;51.044;3.746;2022-07-04T04:18:09;14.10;99.90
13328;DHT22;6733;51.044;3.746;2022-07-04T04:20:35;14.00;99.90
13328;DHT22;6733;51.044;3.746;2022-07-04T04:23:01;14.10;99.90
13328;DHT22;6733;51.044;3.746;2022-07-04T04:25:27;14.10;99.90
13328;DHT22;6733;51.044;3.746;2022-07-04T04:27:53;14.10;99.90
13328;DHT22;6733;51.044;3.746;2022-07-04T04:30:20;14.10;99.90
13328;DHT22;6733;51.044;3.746;2022-07-04T04:32:46;14.20;99.90
13328;DHT22;6733;51.044;3.746;2022-07-04T04:35:12;14.20;99.90
13328;DHT22;6733;51.044;3.746;2022-07-04T04:37:38;14.20;99.90
13328;DHT22;6733;51.044;3.746;2022-07-04T04:40:05;14.30;99.90
13328;DHT22;6733;51.044;3.746;2022-07-04T04:42:32;14.40;99.90
13328;DHT22;6733;51.044;3.746;2022-07-04T04:44:58;14.50;99.90
13328;DHT22;6733;51.044;3.746;2022-07-04T04:47:24;14.60;99.90
13328;DHT22;6733;51.044;3.746;2022-07-04T04:49:50;14.60;99.90
13328;DHT22;6733;51.044;3.746;2022-07-04T04:52:16;14.70;99.90
13328;DHT22;6733;51.044;3.746;2022-07-04T04:54:42;14.70;99.90
13328;DHT22;6733;51.044;3.746;2022-07-04T04:57:08;14.70;99.90
13328;DHT22;6733;51.044;3.746;2022-07-04T04:59:35;14.70;99.90
13328;DHT22;6733;51.044;3.746;2022-07-04T05:02:01;14.80;99.90
13328;DHT22;6733;51.044;3.746;2022-07-04T05:04:28;14.80;99.90
13328;DHT22;6733;51.044;3.746;2022-07-04T05:06:54;14.80;99.90
13328;DHT22;6733;51.044;3.746;2022-07-04T05:09:21;14.90;99.90
13328;DHT22;6733;51.044;3.746;2022-07-04T05:11:47;14.90;99.90
13328;DHT22;6733;51.044;3.746;2022-07-04T05:14:14;15.00;99.90
13328;DHT22;6733;51.044;3.746;2022-07-04T05:16:40;15.00;99.90
13328;DHT22;6733;51.044;3.746;2022-07-04T05:19:07;15.10;99.90
13328;DHT22;6733;51.044;3.746;2022-07-04T05:21:33;15.20;99.90
13328;DHT22;6733;51.044;3.746;2022-07-04T05:23:59;15.30;99.90
13328;DHT22;6733;51.044;3.746;2022-07-04T05:26:25;15.30;99.90
13328;DHT22;6733;51.044;3.746;2022-07-04T05:28:52;15.30;99.90
13328;DHT22;6733;51.044;3.746;2022-07-04T05:31:18;15.40;99.90
13328;DHT22;6733;51.044;3.746;2022-07-04T05:33:44;15.40;99.90
13328;DHT22;6733;51.044;3.746;2022-07-04T05:36:10;15.50;99.90
13328;DHT22;6733;51.044;3.746;2022-07-04T05:38:37;15.50;99.90
13328;DHT22;6733;51.044;3.746;2022-07-04T05:41:03;15.50;99.90
13328;DHT22;6733;51.044;3.746;2022-07-04T05:43:29;15.50;99.90
13328;DHT22;6733;51.044;3.746;2022-07-04T05:45:55;15.70;99.90
13328;DHT22;6733;51.044;3.746;2022-07-04T05:48:21;15.70;99.90
13328;DHT22;6733;51.044;3.746;2022-07-04T05:50:48;15.70;99.90
13328;DHT22;6733;51.044;3.746;2022-07-04T05:53:14;15.60;99.90
13328;DHT22;6733;51.044;3.746;2022-07-04T05:55:40;15.70;99.90
13328;DHT22;6733;51.044;3.746;2022-07-04T05:58:06;15.70;99.90
13328;DHT22;6733;51.044;3.746;2022-07-04T06:00:32;15.60;99.90
13328;DHT22;6733;51.044;3.746;2022-07-04T06:02:59;15.60;99.90
13328;DHT22;6733;51.044;3.746;2022-07-04T06:05:25;15.70;99.90
13328;DHT22;6733;51.044;3.746;2022-07-04T06:07:51;15.70;99.90
13328;DHT22;6733;51.044;3.746;2022-07-04T06:10:17;15.90;99.90
13328;DHT22;6733;51.044;3.746;2022-07-04T06:12:43;16.00;99.90
13328;DHT22;6733;51.044;3.746;2022-07-04T06:15:10;16.10;99.90
13328;DHT22;6733;51.044;3.746;2022-07-04T06:17:37;16.10;99.90
13328;DHT22;6733;51.044;3.746;2022-07-04T06:20:03;16.30;99.90
13328;DHT22;6733;51.044;3.746;2022-07-04T06:22:40;16.20;99.90
13328;DHT22;6733;51.044;3.746;2022-07-04T06:25:11;16.10;99.90
13328;DHT22;6733;51.044;3.746;2022-07-04T06:27:37;16.30;99.90
13328;DHT22;6733;51.044;3.746;2022-07-04T06:30:05;16.40;99.90
13328;DHT22;6733;51.044;3.746;2022-07-04T06:32:58;16.60;99.90
13328;DHT22;6733;51.044;3.746;2022-07-04T06:35:29;16.60;99.90
13328;DHT22;6733;51.044;3.746;2022-07-04T06:38:16;16.80;99.90
13328;DHT22;6733;51.044;3.746;2022-07-04T06:40:43;16.90;99.90
13328;DHT22;6733;51.044;3.746;2022-07-04T06:43:09;17.00;99.90
13328;DHT22;6733;51.044;3.746;2022-07-04T06:45:36;17.10;99.90
13328;DHT22;6733;51.044;3.746;2022-07-04T06:48:06;17.30;99.90
13328;DHT22;6733;51.044;3.746;2022-07-04T06:50:33;17.30;99.90
13328;DHT22;6733;51.044;3.746;2022-07-04T06:53:04;17.30;99.90
13328;DHT22;6733;51.044;3.746;2022-07-04T06:55:38;17.60;99.90
13328;DHT22;6733;51.044;3.746;2022-07-04T06:58:05;17.80;99.90
13328;DHT22;6733;51.044;3.746;2022-07-04T07:00:32;18.00;99.90
13328;DHT22;6733;51.044;3.746;2022-07-04T07:02:59;18.40;99.90
13328;DHT22;6733;51.044;3.746;2022-07-04T07:05:26;18.40;99.90
13328;DHT22;6733;51.044;3.746;2022-07-04T07:07:53;18.40;99.90
13328;DHT22;6733;51.044;3.746;2022-07-04T07:10:20;18.50;99.90
13328;DHT22;6733;51.044;3.746;2022-07-04T07:12:46;18.50;99.90
13328;DHT22;6733;51.044;3.746;2022-07-04T07:15:13;18.60;99.90
13328;DHT22;6733;51.044;3.746;2022-07-04T07:17:40;18.70;99.90
13328;DHT22;6733;51.044;3.746;2022-07-04T07:20:07;18.70;99.90
13328;DHT22;6733;51.044;3.746;2022-07-04T07:22:33;18.90;99.90
13328;DHT22;6733;51.044;3.746;2022-07-04T07:24:59;19.00;99.90
13328;DHT22;6733;51.044;3.746;2022-07-04T07:27:25;19.10;99.90
13328;DHT22;6733;51.044;3.746;2022-07-04T07:29:51;19.20;99.90
13328;DHT22;6733;51.044;3.746;2022-07-04T07:32:18;19.20;99.90
13328;DHT22;6733;51.044;3.746;2022-07-04T07:34:44;19.00;99.90
13328;DHT22;6733;51.044;3.746;2022-07-04T07:37:10;19.10;99.90
13328;DHT22;6733;51.044;3.746;2022-07-04T07:39:36;19.40;99.90
13328;DHT22;6733;51.044;3.746;2022-07-04T07:42:02;19.60;99.90
13328;DHT22;6733;51.044;3.746;2022-07-04T07:44:29;19.60;99.90
13328;DHT22;6733;51.044;3.746;2022-07-04T07:46:55;19.80;99.90
13328;DHT22;6733;51.044;3.746;2022-07-04T07:49:22;19.70;99.90
13328;DHT22;6733;51.044;3.746;2022-07-04T07:51:48;20.00;99.90
13328;DHT22;6733;51.044;3.746;2022-07-04T07:54:14;19.90;99.90
13328;DHT22;6733;51.044;3.746;2022-07-04T07:56:42;20.00;99.90
13328;DHT22;6733;51.044;3.746;2022-07-04T07:59:08;20.10;99.90
13328;DHT22;6733;51.044;3.746;2022-07-04T08:01:34;20.40;99.90
13328;DHT22;6733;51.044;3.746;2022-07-04T08:04:00;20.40;99.90
13328;DHT22;6733;51.044;3.746;2022-07-04T08:06:45;20.70;99.90
13328;DHT22;6733;51.044;3.746;2022-07-04T08:09:12;20.60;99.90
13328;DHT22;6733;51.044;3.746;2022-07-04T08:11:41;20.60;99.90
13328;DHT22;6733;51.044;3.746;2022-07-04T08:14:07;21.10;99.90
13328;DHT22;6733;51.044;3.746;2022-07-04T08:16:34;21.20;99.90
13328;DHT22;6733;51.044;3.746;2022-07-04T08:19:01;21.10;99.90
13328;DHT22;6733;51.044;3.746;2022-07-04T08:21:27;21.40;99.90
13328;DHT22;6733;51.044;3.746;2022-07-04T08:23:53;21.60;99.90
13328;DHT22;6733;51.044;3.746;2022-07-04T08:26:20;22.00;99.90
13328;DHT22;6733;51.044;3.746;2022-07-04T08:28:46;22.00;99.90
13328;DHT22;6733;51.044;3.746;2022-07-04T08:31:12;22.00;99.90
13328;DHT22;6733;51.044;3.746;2022-07-04T08:33:38;21.80;99.90
13328;DHT22;6733;51.044;3.746;2022-07-04T08:36:04;22.20;99.90
13328;DHT22;6733;51.044;3.746;2022-07-04T08:38:31;22.30;99.90
13328;DHT22;6733;51.044;3.746;2022-07-04T08:40:58;22.80;99.90
13328;DHT22;6733;51.044;3.746;2022-07-04T08:43:25;22.80;99.90
13328;DHT22;6733;51.044;3.746;2022-07-04T08:45:54;23.00;99.90
13328;DHT22;6733;51.044;3.746;2022-07-04T08:48:24;22.40;99.90
13328;DHT22;6733;51.044;3.746;2022-07-04T08:50:55;23.00;99.90
13328;DHT22;6733;51.044;3.746;2022-07-04T08:53:26;23.20;99.90
13328;DHT22;6733;51.044;3.746;2022-07-04T08:55:53;23.00;99.90
13328;DHT22;6733;51.044;3.746;2022-07-04T08:58:39;22.50;99.90
13328;DHT22;6733;51.044;3.746;2022-07-04T09:01:08;22.50;99.90
13328;DHT22;6733;51.044;3.746;2022-07-04T09:03:37;22.40;99.90
13328;DHT22;6733;51.044;3.746;2022-07-04T09:06:03;22.70;99.90
13328;DHT22;6733;51.044;3.746;2022-07-04T09:08:30;22.80;99.90
13328;DHT22;6733;51.044;3.746;2022-07-04T09:10:57;23.10;99.90
13328;DHT22;6733;51.044;3.746;2022-07-04T09:13:23;23.50;99.90
13328;DHT22;6733;51.044;3.746;2022-07-04T09:15:50;23.30;99.90
13328;DHT22;6733;51.044;3.746;2022-07-04T09:18:34;23.30;99.90
13328;DHT22;6733;51.044;3.746;2022-07-04T09:21:06;23.70;99.90
13328;DHT22;6733;51.044;3.746;2022-07-04T09:23:40;23.10;99.90
13328;DHT22;6733;51.044;3.746;2022-07-04T09:26:18;22.70;99.90
13328;DHT22;6733;51.044;3.746;2022-07-04T09:28:54;23.20;99.90
13328;DHT22;6733;51.044;3.746;2022-07-04T09:31:29;23.50;99.90
13328;DHT22;6733;51.044;3.746;2022-07-04T09:33:57;23.30;99.90
13328;DHT22;6733;51.044;3.746;2022-07-04T09:36:26;23.60;99.90
13328;DHT22;6733;51.044;3.746;2022-07-04T09:39:16;23.70;99.90
13328;DHT22;6733;51.044;3.746;2022-07-04T09:42:01;22.80;99.90
13328;DHT22;6733;51.044;3.746;2022-07-04T09:44:46;22.60;99.90
13328;DHT22;6733;51.044;3.746;2022-07-04T09:47:39;22.80;99.90
13328;DHT22;6733;51.044;3.746;2022-07-04T09:50:19;23.30;99.90
13328;DHT22;6733;51.044;3.746;2022-07-04T09:52:57;23.80;99.90
13328;DHT22;6733;51.044;3.746;2022-07-04T09:58:03;24.00;99.90
13328;DHT22;6733;51.044;3.746;2022-07-04T10:00:32;23.70;99.90
13328;DHT22;6733;51.044;3.746;2022-07-04T10:03:19;24.20;99.90
13328;DHT22;6733;51.044;3.746;2022-07-04T10:08:28;23.70;99.90
13328;DHT22;6733;51.044;3.746;2022-07-04T10:10:58;23.90;99.90
13328;DHT22;6733;51.044;3.746;2022-07-04T10:13:25;23.20;99.90
13328;DHT22;6733;51.044;3.746;2022-07-04T10:15:51;23.40;99.90
13328;DHT22;6733;51.044;3.746;2022-07-04T10:18:19;24.00;99.90
13328;DHT22;6733;51.044;3.746;2022-07-04T10:20:46;24.60;99.90
13328;DHT22;6733;51.044;3.746;2022-07-04T10:23:12;23.70;99.90
13328;DHT22;6733;51.044;3.746;2022-07-04T10:25:39;23.10;99.90
13328;DHT22;6733;51.044;3.746;2022-07-04T10:28:05;23.00;99.90
13328;DHT22;6733;51.044;3.746;2022-07-04T10:30:34;22.90;99.90
13328;DHT22;6733;51.044;3.746;2022-07-04T10:33:06;22.80;99.90
13328;DHT22;6733;51.044;3.746;2022-07-04T10:38:27;24.20;99.90
13328;DHT22;6733;51.044;3.746;2022-07-04T10:41:04;25.20;99.90
13328;DHT22;6733;51.044;3.746;2022-07-04T10:48:32;24.60;99.90
13328;DHT22;6733;51.044;3.746;2022-07-04T10:50:59;24.10;99.90
13328;DHT22;6733;51.044;3.746;2022-07-04T10:53:26;23.90;99.90
13328;DHT22;6733;51.044;3.746;2022-07-04T10:55:52;24.20;99.90
13328;DHT22;6733;51.044;3.746;2022-07-04T10:58:50;25.20;99.90
13328;DHT22;6733;51.044;3.746;2022-07-04T11:01:17;24.40;99.90
13328;DHT22;6733;51.044;3.746;2022-07-04T11:03:51;23.90;99.90
13328;DHT22;6733;51.044;3.746;2022-07-04T11:09:15;24.10;99.90
13328;DHT22;6733;51.044;3.746;2022-07-04T11:11:51;24.20;99.90
13328;DHT22;6733;51.044;3.746;2022-07-04T11:14:44;24.20;99.90
13328;DHT22;6733;51.044;3.746;2022-07-04T11:17:59;24.50;99.90
13328;DHT22;6733;51.044;3.746;2022-07-04T11:20:00;24.40;99.90
13328;DHT22;6733;51.044;3.746;2022-07-04T11:22:27;24.50;99.90
13328;DHT22;6733;51.044;3.746;2022-07-04T11:24:53;24.10;99.90
13328;DHT22;6733;51.044;3.746;2022-07-04T11:27:21;24.10;99.90
13328;DHT22;6733;51.044;3.746;2022-07-04T11:29:51;23.90;99.90
13328;DHT22;6733;51.044;3.746;2022-07-04T11:32:18;23.90;99.90
13328;DHT22;6733;51.044;3.746;2022-07-04T11:34:45;23.90;99.90
13328;DHT22;6733;51.044;3.746;2022-07-04T11:37:12;24.10;99.90
13328;DHT22;6733;51.044;3.746;2022-07-04T11:39:39;24.20;99.90
13328;DHT22;6733;51.044;3.746;2022-07-04T11:42:05;24.20;99.90
13328;DHT22;6733;51.044;3.746;2022-07-04T11:44:50;24.00;99.90
13328;DHT22;6733;51.044;3.746;2022-07-04T11:49:58;23.80;99.90
13328;DHT22;6733;51.044;3.746;2022-07-04T11:52:30;23.80;99.90
13328;DHT22;6733;51.044;3.746;2022-07-04T11:54:57;24.30;99.90
13328;DHT22;6733;51.044;3.746;2022-07-04T11:57:29;24.70;99.90
13328;DHT22;6733;51.044;3.746;2022-07-04T12:02:28;25.60;99.90
13328;DHT22;6733;51.044;3.746;2022-07-04T12:04:55;25.60;99.90
13328;DHT22;6733;51.044;3.746;2022-07-04T12:07:25;25.30;99.90
13328;DHT22;6733;51.044;3.746;2022-07-04T12:09:53;24.70;99.90
13328;DHT22;6733;51.044;3.746;2022-07-04T12:12:20;25.20;99.90
13328;DHT22;6733;51.044;3.746;2022-07-04T12:15:08;25.20;99.90
13328;DHT22;6733;51.044;3.746;2022-07-04T12:17:36;25.10;99.90
13328;DHT22;6733;51.044;3.746;2022-07-04T12:20:12;25.20;99.90
13328;DHT22;6733;51.044;3.746;2022-07-04T12:22:41;25.10;99.90
13328;DHT22;6733;51.044;3.746;2022-07-04T12:25:23;25.10;99.90
13328;DHT22;6733;51.044;3.746;2022-07-04T12:28:14;24.40;99.90
13328;DHT22;6733;51.044;3.746;2022-07-04T12:30:55;24.40;99.90
13328;DHT22;6733;51.044;3.746;2022-07-04T12:33:25;24.90;99.90
13328;DHT22;6733;51.044;3.746;2022-07-04T12:36:02;25.10;99.90
13328;DHT22;6733;51.044;3.746;2022-07-04T12:41:00;24.40;99.90
13328;DHT22;6733;51.044;3.746;2022-07-04T12:43:47;23.80;99.90
13328;DHT22;6733;51.044;3.746;2022-07-04T12:48:55;24.60;99.90
13328;DHT22;6733;51.044;3.746;2022-07-04T12:51:28;24.30;99.90
13328;DHT22;6733;51.044;3.746;2022-07-04T12:53:56;24.00;99.90
13328;DHT22;6733;51.044;3.746;2022-07-04T12:58:55;23.90;99.90
13328;DHT22;6733;51.044;3.746;2022-07-04T13:01:22;24.20;99.90
13328;DHT22;6733;51.044;3.746;2022-07-04T13:03:48;24.60;99.90
13328;DHT22;6733;51.044;3.746;2022-07-04T13:06:14;24.90;99.90
13328;DHT22;6733;51.044;3.746;2022-07-04T13:08:40;25.10;99.90
13328;DHT22;6733;51.044;3.746;2022-07-04T13:11:06;25.10;99.90
13328;DHT22;6733;51.044;3.746;2022-07-04T13:13:51;25.30;99.90
13328;DHT22;6733;51.044;3.746;2022-07-04T13:16:17;25.40;99.90
13328;DHT22;6733;51.044;3.746;2022-07-04T13:18:43;26.00;99.90
13328;DHT22;6733;51.044;3.746;2022-07-04T13:21:10;26.40;99.90
13328;DHT22;6733;51.044;3.746;2022-07-04T13:23:36;26.40;99.90
13328;DHT22;6733;51.044;3.746;2022-07-04T13:26:03;25.60;99.90
13328;DHT22;6733;51.044;3.746;2022-07-04T13:28:30;25.70;99.90
13328;DHT22;6733;51.044;3.746;2022-07-04T13:30:56;25.10;99.90
13328;DHT22;6733;51.044;3.746;2022-07-04T13:33:22;24.70;99.90
13328;DHT22;6733;51.044;3.746;2022-07-04T13:35:48;24.60;99.90
13328;DHT22;6733;51.044;3.746;2022-07-04T13:38:15;24.90;99.90
13328;DHT22;6733;51.044;3.746;2022-07-04T13:40:44;25.00;99.90
13328;DHT22;6733;51.044;3.746;2022-07-04T13:43:11;25.40;99.90
13328;DHT22;6733;51.044;3.746;2022-07-04T13:45:38;25.70;99.90
13328;DHT22;6733;51.044;3.746;2022-07-04T13:48:06;26.00;99.90
13328;DHT22;6733;51.044;3.746;2022-07-04T13:50:33;25.80;99.90
13328;DHT22;6733;51.044;3.746;2022-07-04T13:53:07;27.10;99.90
13328;DHT22;6733;51.044;3.746;2022-07-04T13:55:35;27.10;99.90
13328;DHT22;6733;51.044;3.746;2022-07-04T13:58:02;27.10;99.90
13328;DHT22;6733;51.044;3.746;2022-07-04T14:00:29;27.50;99.90
13328;DHT22;6733;51.044;3.746;2022-07-04T14:02:55;28.20;99.90
13328;DHT22;6733;51.044;3.746;2022-07-04T14:05:21;28.50;99.90
13328;DHT22;6733;51.044;3.746;2022-07-04T14:07:47;28.90;99.60
13328;DHT22;6733;51.044;3.746;2022-07-04T14:10:14;30.20;98.30
13328;DHT22;6733;51.044;3.746;2022-07-04T14:12:40;30.60;96.80
13328;DHT22;6733;51.044;3.746;2022-07-04T14:15:07;30.70;95.70
13328;DHT22;6733;51.044;3.746;2022-07-04T14:17:34;28.90;96.50
13328;DHT22;6733;51.044;3.746;2022-07-04T14:20:01;27.70;97.90
13328;DHT22;6733;51.044;3.746;2022-07-04T14:22:27;27.60;99.00
13328;DHT22;6733;51.044;3.746;2022-07-04T14:24:53;28.70;98.10
13328;DHT22;6733;51.044;3.746;2022-07-04T14:27:19;29.30;96.90
13328;DHT22;6733;51.044;3.746;2022-07-04T14:29:46;28.90;97.10
13328;DHT22;6733;51.044;3.746;2022-07-04T14:32:12;28.20;98.20
13328;DHT22;6733;51.044;3.746;2022-07-04T14:34:38;27.50;98.60
13328;DHT22;6733;51.044;3.746;2022-07-04T14:37:04;27.90;98.60
13328;DHT22;6733;51.044;3.746;2022-07-04T14:39:31;27.50;98.90
13328;DHT22;6733;51.044;3.746;2022-07-04T14:41:57;27.00;99.40
13328;DHT22;6733;51.044;3.746;2022-07-04T14:44:23;27.20;99.20
13328;DHT22;6733;51.044;3.746;2022-07-04T14:46:49;28.60;98.50
13328;DHT22;6733;51.044;3.746;2022-07-04T14:49:15;27.60;98.70
13328;DHT22;6733;51.044;3.746;2022-07-04T14:51:42;27.20;99.20
13328;DHT22;6733;51.044;3.746;2022-07-04T14:54:08;27.00;99.90
13328;DHT22;6733;51.044;3.746;2022-07-04T14:56:35;28.40;98.90
13328;DHT22;6733;51.044;3.746;2022-07-04T14:59:03;28.70;97.90
13328;DHT22;6733;51.044;3.746;2022-07-04T15:01:30;28.30;98.10
13328;DHT22;6733;51.044;3.746;2022-07-04T15:03:56;27.90;98.50
13328;DHT22;6733;51.044;3.746;2022-07-04T15:06:23;27.00;99.90
13328;DHT22;6733;51.044;3.746;2022-07-04T15:08:49;26.60;99.90
13328;DHT22;6733;51.044;3.746;2022-07-04T15:11:15;26.00;99.90
13328;DHT22;6733;51.044;3.746;2022-07-04T15:13:41;25.80;99.90
13328;DHT22;6733;51.044;3.746;2022-07-04T15:16:07;25.30;99.90
13328;DHT22;6733;51.044;3.746;2022-07-04T15:18:34;24.80;99.90
13328;DHT22;6733;51.044;3.746;2022-07-04T15:21:00;24.50;99.90
13328;DHT22;6733;51.044;3.746;2022-07-04T15:23:45;24.80;99.90
13328;DHT22;6733;51.044;3.746;2022-07-04T15:26:29;24.80;99.90
13328;DHT22;6733;51.044;3.746;2022-07-04T15:28:56;25.80;99.90
13328;DHT22;6733;51.044;3.746;2022-07-04T15:31:22;25.90;99.90
13328;DHT22;6733;51.044;3.746;2022-07-04T15:33:48;26.10;99.90
13328;DHT22;6733;51.044;3.746;2022-07-04T15:36:14;26.80;99.90
13328;DHT22;6733;51.044;3.746;2022-07-04T15:38:40;27.20;99.90
13328;DHT22;6733;51.044;3.746;2022-07-04T15:41:07;27.50;99.90
13328;DHT22;6733;51.044;3.746;2022-07-04T15:43:34;27.00;99.90
13328;DHT22;6733;51.044;3.746;2022-07-04T15:46:00;27.10;99.90
13328;DHT22;6733;51.044;3.746;2022-07-04T15:48:27;27.40;99.90
13328;DHT22;6733;51.044;3.746;2022-07-04T15:50:53;27.10;99.90
13328;DHT22;6733;51.044;3.746;2022-07-04T15:53:19;27.70;99.90
13328;DHT22;6733;51.044;3.746;2022-07-04T15:55:46;27.50;99.90
13328;DHT22;6733;51.044;3.746;2022-07-04T15:58:12;27.10;99.90
13328;DHT22;6733;51.044;3.746;2022-07-04T16:00:38;27.90;99.90
13328;DHT22;6733;51.044;3.746;2022-07-04T16:03:05;28.60;99.90
13328;DHT22;6733;51.044;3.746;2022-07-04T16:05:32;27.90;99.90
13328;DHT22;6733;51.044;3.746;2022-07-04T16:07:58;28.10;99.90
13328;DHT22;6733;51.044;3.746;2022-07-04T16:10:25;28.90;99.90
13328;DHT22;6733;51.044;3.746;2022-07-04T16:12:51;27.90;99.90
13328;DHT22;6733;51.044;3.746;2022-07-04T16:15:17;28.20;99.90
13328;DHT22;6733;51.044;3.746;2022-07-04T16:17:43;27.90;99.90
13328;DHT22;6733;51.044;3.746;2022-07-04T16:20:09;28.10;99.90